sensor_id;sensor_type;location;lat;lon;timestamp;P1;durP1;ratioP1;P2;durP2;ratioP2
23304;SDS011;11821;51.456;8.844;2024-01-11T00:02:24;38.53;;;15.27;;
23304;SDS011;11821;51.456;8.844;2024-01-11T00:04:50;35.28;;;15.95;;
23304;SDS011;11821;51.456;8.844;2024-01-11T00:07:17;39.03;;;16.80;;
23304;SDS011;11821;51.456;8.844;2024-01-11T00:09:43;36.97;;;15.07;;
23304;SDS011;11821;51.456;8.844;2024-01-11T00:12:10;30.83;;;15.15;;
23304;SDS011;11821;51.456;8.844;2024-01-11T00:14:37;31.35;;;15.63;;
23304;SDS011;11821;51.456;8.844;2024-01-11T00:17:03;29.30;;;13.98;;
23304;SDS011;11821;51.456;8.844;2024-01-11T00:19:30;33.28;;;14.25;;
23304;SDS011;11821;51.456;8.844;2024-01-11T00:21:57;36.13;;;15.10;;
23304;SDS011;11821;51.456;8.844;2024-01-11T00:24:24;36.00;;;14.30;;
23304;SDS011;11821;51.456;8.844;2024-01-11T00:26:50;26.95;;;12.88;;
23304;SDS011;11821;51.456;8.844;2024-01-11T00:29:17;32.50;;;13.15;;
23304;SDS011;11821;51.456;8.844;2024-01-11T00:31:43;31.95;;;13.43;;
23304;SDS011;11821;51.456;8.844;2024-01-11T00:34:10;28.23;;;14.40;;
23304;SDS011;11821;51.456;8.844;2024-01-11T00:36:37;24.98;;;12.25;;
23304;SDS011;11821;51.456;8.844;2024-01-11T00:39:04;25.42;;;12.18;;
23304;SDS011;11821;51.456;8.844;2024-01-11T00:41:30;35.30;;;18.38;;
23304;SDS011;11821;51.456;8.844;2024-01-11T00:43:57;41.55;;;17.83;;
23304;SDS011;11821;51.456;8.844;2024-01-11T00:46:24;39.80;;;17.95;;
23304;SDS011;11821;51.456;8.844;2024-01-11T00:48:50;33.40;;;17.42;;
23304;SDS011;11821;51.456;8.844;2024-01-11T00:51:17;37.35;;;16.95;;
23304;SDS011;11821;51.456;8.844;2024-01-11T00:53:43;40.65;;;22.10;;
23304;SDS011;11821;51.456;8.844;2024-01-11T00:56:19;35.33;;;19.85;;
23304;SDS011;11821;51.456;8.844;2024-01-11T00:58:46;34.45;;;18.63;;
23304;SDS011;11821;51.456;8.844;2024-01-11T01:01:12;43.85;;;22.00;;
23304;SDS011;11821;51.456;8.844;2024-01-11T01:03:39;37.65;;;21.15;;
23304;SDS011;11821;51.456;8.844;2024-01-11T01:06:06;39.08;;;21.25;;
23304;SDS011;11821;51.456;8.844;2024-01-11T01:08:32;42.90;;;22.23;;
23304;SDS011;11821;51.456;8.844;2024-01-11T01:10:59;40.28;;;22.80;;
23304;SDS011;11821;51.456;8.844;2024-01-11T01:13:26;53.05;;;27.10;;
23304;SDS011;11821;51.456;8.844;2024-01-11T01:15:52;39.33;;;22.27;;
23304;SDS011;11821;51.456;8.844;2024-01-11T01:18:19;38.92;;;22.27;;
23304;SDS011;11821;51.456;8.844;2024-01-11T01:20:45;47.67;;;24.02;;
23304;SDS011;11821;51.456;8.844;2024-01-11T01:23:12;42.65;;;19.67;;
23304;SDS011;11821;51.456;8.844;2024-01-11T01:25:38;32.97;;;19.20;;
23304;SDS011;11821;51.456;8.844;2024-01-11T01:28:05;33.55;;;18.52;;
23304;SDS011;11821;51.456;8.844;2024-01-11T01:30:31;39.00;;;20.70;;
23304;SDS011;11821;51.456;8.844;2024-01-11T01:32:58;48.97;;;22.23;;
23304;SDS011;11821;51.456;8.844;2024-01-11T01:35:25;43.63;;;22.70;;
23304;SDS011;11821;51.456;8.844;2024-01-11T01:37:51;29.80;;;16.75;;
23304;SDS011;11821;51.456;8.844;2024-01-11T01:40:18;39.38;;;18.30;;
23304;SDS011;11821;51.456;8.844;2024-01-11T01:42:44;32.67;;;19.52;;
23304;SDS011;11821;51.456;8.844;2024-01-11T01:45:12;38.75;;;21.92;;
23304;SDS011;11821;51.456;8.844;2024-01-11T01:47:39;41.97;;;22.70;;
23304;SDS011;11821;51.456;8.844;2024-01-11T01:50:06;46.17;;;23.58;;
23304;SDS011;11821;51.456;8.844;2024-01-11T01:52:33;38.83;;;21.55;;
23304;SDS011;11821;51.456;8.844;2024-01-11T01:55:01;53.28;;;24.00;;
23304;SDS011;11821;51.456;8.844;2024-01-11T01:57:28;46.45;;;22.90;;
23304;SDS011;11821;51.456;8.844;2024-01-11T01:59:54;50.28;;;26.13;;
23304;SDS011;11821;51.456;8.844;2024-01-11T02:02:21;44.28;;;23.80;;
23304;SDS011;11821;51.456;8.844;2024-01-11T02:04:48;44.75;;;23.13;;
23304;SDS011;11821;51.456;8.844;2024-01-11T02:07:15;45.00;;;26.35;;
23304;SDS011;11821;51.456;8.844;2024-01-11T02:09:41;40.17;;;22.42;;
23304;SDS011;11821;51.456;8.844;2024-01-11T02:12:09;39.30;;;25.00;;
23304;SDS011;11821;51.456;8.844;2024-01-11T02:14:37;46.88;;;25.30;;
23304;SDS011;11821;51.456;8.844;2024-01-11T02:17:04;51.38;;;25.67;;
23304;SDS011;11821;51.456;8.844;2024-01-11T02:19:31;47.25;;;20.90;;
23304;SDS011;11821;51.456;8.844;2024-01-11T02:22:00;46.47;;;19.95;;
23304;SDS011;11821;51.456;8.844;2024-01-11T02:24:28;40.15;;;20.55;;
23304;SDS011;11821;51.456;8.844;2024-01-11T02:29:25;42.40;;;19.42;;
23304;SDS011;11821;51.456;8.844;2024-01-11T02:31:52;36.67;;;16.90;;
23304;SDS011;11821;51.456;8.844;2024-01-11T02:34:18;44.65;;;22.73;;
23304;SDS011;11821;51.456;8.844;2024-01-11T02:36:45;54.25;;;27.20;;
23304;SDS011;11821;51.456;8.844;2024-01-11T02:39:13;56.75;;;28.17;;
23304;SDS011;11821;51.456;8.844;2024-01-11T02:41:39;53.55;;;27.00;;
23304;SDS011;11821;51.456;8.844;2024-01-11T02:44:06;43.13;;;23.98;;
23304;SDS011;11821;51.456;8.844;2024-01-11T02:46:33;51.30;;;28.27;;
23304;SDS011;11821;51.456;8.844;2024-01-11T02:48:59;47.63;;;23.58;;
23304;SDS011;11821;51.456;8.844;2024-01-11T02:51:26;55.47;;;28.92;;
23304;SDS011;11821;51.456;8.844;2024-01-11T02:53:52;49.00;;;25.08;;
23304;SDS011;11821;51.456;8.844;2024-01-11T02:56:19;58.33;;;26.38;;
23304;SDS011;11821;51.456;8.844;2024-01-11T02:58:45;44.75;;;25.88;;
23304;SDS011;11821;51.456;8.844;2024-01-11T03:01:12;53.15;;;27.00;;
23304;SDS011;11821;51.456;8.844;2024-01-11T03:03:39;61.58;;;27.23;;
23304;SDS011;11821;51.456;8.844;2024-01-11T03:06:05;46.22;;;25.48;;
23304;SDS011;11821;51.456;8.844;2024-01-11T03:08:33;63.08;;;30.45;;
23304;SDS011;11821;51.456;8.844;2024-01-11T03:10:59;60.92;;;26.17;;
23304;SDS011;11821;51.456;8.844;2024-01-11T03:13:26;47.97;;;26.95;;
23304;SDS011;11821;51.456;8.844;2024-01-11T03:15:52;53.25;;;28.23;;
23304;SDS011;11821;51.456;8.844;2024-01-11T03:18:19;56.40;;;28.23;;
23304;SDS011;11821;51.456;8.844;2024-01-11T03:20:45;48.92;;;26.65;;
23304;SDS011;11821;51.456;8.844;2024-01-11T03:23:12;52.65;;;28.95;;
23304;SDS011;11821;51.456;8.844;2024-01-11T03:25:38;54.33;;;25.08;;
23304;SDS011;11821;51.456;8.844;2024-01-11T03:28:05;54.95;;;26.83;;
23304;SDS011;11821;51.456;8.844;2024-01-11T03:30:32;51.10;;;27.05;;
23304;SDS011;11821;51.456;8.844;2024-01-11T03:32:58;51.92;;;27.08;;
23304;SDS011;11821;51.456;8.844;2024-01-11T03:35:25;44.45;;;23.98;;
23304;SDS011;11821;51.456;8.844;2024-01-11T03:37:51;55.05;;;25.83;;
23304;SDS011;11821;51.456;8.844;2024-01-11T03:40:18;45.67;;;24.77;;
23304;SDS011;11821;51.456;8.844;2024-01-11T03:42:45;45.53;;;24.88;;
23304;SDS011;11821;51.456;8.844;2024-01-11T03:45:11;57.47;;;28.00;;
23304;SDS011;11821;51.456;8.844;2024-01-11T03:47:38;62.42;;;29.10;;
23304;SDS011;11821;51.456;8.844;2024-01-11T03:50:04;53.83;;;27.40;;
23304;SDS011;11821;51.456;8.844;2024-01-11T03:52:31;62.83;;;29.40;;
23304;SDS011;11821;51.456;8.844;2024-01-11T03:54:58;54.72;;;25.92;;
23304;SDS011;11821;51.456;8.844;2024-01-11T03:57:24;57.13;;;27.45;;
23304;SDS011;11821;51.456;8.844;2024-01-11T03:59:51;57.25;;;29.73;;
23304;SDS011;11821;51.456;8.844;2024-01-11T04:02:17;59.80;;;31.58;;
23304;SDS011;11821;51.456;8.844;2024-01-11T04:04:44;62.13;;;30.98;;
23304;SDS011;11821;51.456;8.844;2024-01-11T04:07:10;55.80;;;28.10;;
23304;SDS011;11821;51.456;8.844;2024-01-11T04:09:40;64.85;;;34.20;;
23304;SDS011;11821;51.456;8.844;2024-01-11T04:12:06;58.70;;;30.52;;
23304;SDS011;11821;51.456;8.844;2024-01-11T04:14:33;58.72;;;30.40;;
23304;SDS011;11821;51.456;8.844;2024-01-11T04:17:00;61.95;;;31.13;;
23304;SDS011;11821;51.456;8.844;2024-01-11T04:19:26;59.55;;;31.25;;
23304;SDS011;11821;51.456;8.844;2024-01-11T04:21:53;67.45;;;33.75;;
23304;SDS011;11821;51.456;8.844;2024-01-11T04:24:19;55.05;;;28.77;;
23304;SDS011;11821;51.456;8.844;2024-01-11T04:26:46;67.85;;;34.50;;
23304;SDS011;11821;51.456;8.844;2024-01-11T04:29:12;68.95;;;33.60;;
23304;SDS011;11821;51.456;8.844;2024-01-11T04:31:39;59.67;;;30.73;;
23304;SDS011;11821;51.456;8.844;2024-01-11T04:34:05;69.53;;;33.67;;
23304;SDS011;11821;51.456;8.844;2024-01-11T04:36:32;62.00;;;31.27;;
23304;SDS011;11821;51.456;8.844;2024-01-11T04:38:59;57.67;;;31.73;;
23304;SDS011;11821;51.456;8.844;2024-01-11T04:41:25;58.30;;;29.50;;
23304;SDS011;11821;51.456;8.844;2024-01-11T04:43:52;64.97;;;32.45;;
23304;SDS011;11821;51.456;8.844;2024-01-11T04:46:20;66.53;;;31.63;;
23304;SDS011;11821;51.456;8.844;2024-01-11T04:48:47;72.25;;;33.63;;
23304;SDS011;11821;51.456;8.844;2024-01-11T04:51:14;71.95;;;33.55;;
23304;SDS011;11821;51.456;8.844;2024-01-11T04:53:42;79.50;;;34.65;;
23304;SDS011;11821;51.456;8.844;2024-01-11T04:56:09;80.15;;;39.70;;
23304;SDS011;11821;51.456;8.844;2024-01-11T04:58:36;69.97;;;35.97;;
23304;SDS011;11821;51.456;8.844;2024-01-11T05:01:04;56.92;;;31.13;;
23304;SDS011;11821;51.456;8.844;2024-01-11T05:03:31;66.78;;;34.40;;
23304;SDS011;11821;51.456;8.844;2024-01-11T05:05:58;60.58;;;29.40;;
23304;SDS011;11821;51.456;8.844;2024-01-11T05:08:25;72.00;;;37.40;;
23304;SDS011;11821;51.456;8.844;2024-01-11T05:10:53;60.88;;;31.08;;
23304;SDS011;11821;51.456;8.844;2024-01-11T05:13:19;65.15;;;33.00;;
23304;SDS011;11821;51.456;8.844;2024-01-11T05:15:46;61.90;;;31.88;;
23304;SDS011;11821;51.456;8.844;2024-01-11T05:18:13;62.45;;;30.63;;
23304;SDS011;11821;51.456;8.844;2024-01-11T05:20:39;60.00;;;30.67;;
23304;SDS011;11821;51.456;8.844;2024-01-11T05:23:06;76.40;;;34.67;;
23304;SDS011;11821;51.456;8.844;2024-01-11T05:25:33;79.38;;;35.65;;
23304;SDS011;11821;51.456;8.844;2024-01-11T05:28:00;68.85;;;33.88;;
23304;SDS011;11821;51.456;8.844;2024-01-11T05:30:26;68.93;;;31.63;;
23304;SDS011;11821;51.456;8.844;2024-01-11T05:32:53;65.53;;;31.92;;
23304;SDS011;11821;51.456;8.844;2024-01-11T05:35:20;45.78;;;25.40;;
23304;SDS011;11821;51.456;8.844;2024-01-11T05:37:49;42.95;;;23.73;;
23304;SDS011;11821;51.456;8.844;2024-01-11T05:40:16;53.53;;;28.13;;
23304;SDS011;11821;51.456;8.844;2024-01-11T05:42:43;57.55;;;31.85;;
23304;SDS011;11821;51.456;8.844;2024-01-11T05:45:09;50.55;;;27.60;;
23304;SDS011;11821;51.456;8.844;2024-01-11T05:47:36;56.25;;;27.88;;
23304;SDS011;11821;51.456;8.844;2024-01-11T05:50:02;72.30;;;32.90;;
23304;SDS011;11821;51.456;8.844;2024-01-11T05:52:29;50.40;;;28.55;;
23304;SDS011;11821;51.456;8.844;2024-01-11T05:54:56;59.08;;;30.90;;
23304;SDS011;11821;51.456;8.844;2024-01-11T05:57:22;70.80;;;34.38;;
23304;SDS011;11821;51.456;8.844;2024-01-11T05:59:49;72.03;;;35.55;;
23304;SDS011;11821;51.456;8.844;2024-01-11T06:02:15;69.57;;;32.78;;
23304;SDS011;11821;51.456;8.844;2024-01-11T06:04:42;60.67;;;27.80;;
23304;SDS011;11821;51.456;8.844;2024-01-11T06:07:09;65.50;;;34.50;;
23304;SDS011;11821;51.456;8.844;2024-01-11T06:09:35;91.35;;;37.20;;
23304;SDS011;11821;51.456;8.844;2024-01-11T06:12:02;87.30;;;39.95;;
23304;SDS011;11821;51.456;8.844;2024-01-11T06:14:29;84.75;;;39.13;;
23304;SDS011;11821;51.456;8.844;2024-01-11T06:16:55;75.40;;;34.78;;
23304;SDS011;11821;51.456;8.844;2024-01-11T06:19:22;57.33;;;30.52;;
23304;SDS011;11821;51.456;8.844;2024-01-11T06:21:49;97.32;;;39.30;;
23304;SDS011;11821;51.456;8.844;2024-01-11T06:24:15;76.45;;;35.13;;
23304;SDS011;11821;51.456;8.844;2024-01-11T06:26:42;68.68;;;30.63;;
23304;SDS011;11821;51.456;8.844;2024-01-11T06:29:08;72.90;;;33.85;;
23304;SDS011;11821;51.456;8.844;2024-01-11T06:31:35;65.53;;;30.48;;
23304;SDS011;11821;51.456;8.844;2024-01-11T06:34:02;67.22;;;27.75;;
23304;SDS011;11821;51.456;8.844;2024-01-11T06:36:29;65.90;;;27.38;;
23304;SDS011;11821;51.456;8.844;2024-01-11T06:38:56;66.47;;;30.50;;
23304;SDS011;11821;51.456;8.844;2024-01-11T06:41:22;60.03;;;29.92;;
23304;SDS011;11821;51.456;8.844;2024-01-11T06:43:49;57.08;;;28.08;;
23304;SDS011;11821;51.456;8.844;2024-01-11T06:46:19;62.58;;;30.63;;
23304;SDS011;11821;51.456;8.844;2024-01-11T06:48:47;48.83;;;23.33;;
23304;SDS011;11821;51.456;8.844;2024-01-11T06:51:15;66.53;;;30.08;;
23304;SDS011;11821;51.456;8.844;2024-01-11T06:53:41;89.93;;;34.70;;
23304;SDS011;11821;51.456;8.844;2024-01-11T06:56:15;69.47;;;32.25;;
23304;SDS011;11821;51.456;8.844;2024-01-11T06:58:42;74.95;;;31.13;;
23304;SDS011;11821;51.456;8.844;2024-01-11T07:01:09;71.65;;;33.50;;
23304;SDS011;11821;51.456;8.844;2024-01-11T07:03:36;64.60;;;32.90;;
23304;SDS011;11821;51.456;8.844;2024-01-11T07:06:02;66.88;;;31.67;;
23304;SDS011;11821;51.456;8.844;2024-01-11T07:08:29;67.95;;;33.35;;
23304;SDS011;11821;51.456;8.844;2024-01-11T07:10:56;56.65;;;29.25;;
23304;SDS011;11821;51.456;8.844;2024-01-11T07:13:23;48.22;;;25.45;;
23304;SDS011;11821;51.456;8.844;2024-01-11T07:15:49;59.33;;;28.33;;
23304;SDS011;11821;51.456;8.844;2024-01-11T07:18:17;57.40;;;29.30;;
23304;SDS011;11821;51.456;8.844;2024-01-11T07:20:44;67.10;;;29.90;;
23304;SDS011;11821;51.456;8.844;2024-01-11T07:23:10;67.43;;;29.60;;
23304;SDS011;11821;51.456;8.844;2024-01-11T07:25:37;69.80;;;29.52;;
23304;SDS011;11821;51.456;8.844;2024-01-11T07:28:04;66.22;;;28.45;;
23304;SDS011;11821;51.456;8.844;2024-01-11T07:30:31;80.82;;;31.30;;
23304;SDS011;11821;51.456;8.844;2024-01-11T07:32:57;65.93;;;30.35;;
23304;SDS011;11821;51.456;8.844;2024-01-11T07:35:24;65.50;;;30.15;;
23304;SDS011;11821;51.456;8.844;2024-01-11T07:37:51;76.78;;;32.35;;
23304;SDS011;11821;51.456;8.844;2024-01-11T07:40:17;86.80;;;31.67;;
23304;SDS011;11821;51.456;8.844;2024-01-11T07:42:44;77.85;;;31.85;;
23304;SDS011;11821;51.456;8.844;2024-01-11T07:45:14;72.18;;;30.83;;
23304;SDS011;11821;51.456;8.844;2024-01-11T07:47:40;70.07;;;30.25;;
23304;SDS011;11821;51.456;8.844;2024-01-11T07:50:07;89.72;;;37.42;;
23304;SDS011;11821;51.456;8.844;2024-01-11T07:52:40;73.25;;;33.10;;
23304;SDS011;11821;51.456;8.844;2024-01-11T07:55:07;61.03;;;29.08;;
23304;SDS011;11821;51.456;8.844;2024-01-11T07:57:35;69.28;;;31.65;;
23304;SDS011;11821;51.456;8.844;2024-01-11T08:00:02;67.75;;;30.13;;
23304;SDS011;11821;51.456;8.844;2024-01-11T08:02:38;67.20;;;31.67;;
23304;SDS011;11821;51.456;8.844;2024-01-11T08:05:05;65.72;;;30.88;;
23304;SDS011;11821;51.456;8.844;2024-01-11T08:07:31;71.75;;;33.45;;
23304;SDS011;11821;51.456;8.844;2024-01-11T08:09:58;76.32;;;32.58;;
23304;SDS011;11821;51.456;8.844;2024-01-11T08:12:24;61.47;;;30.23;;
23304;SDS011;11821;51.456;8.844;2024-01-11T08:14:51;67.10;;;30.33;;
23304;SDS011;11821;51.456;8.844;2024-01-11T08:17:18;71.35;;;33.33;;
23304;SDS011;11821;51.456;8.844;2024-01-11T08:19:45;84.07;;;35.38;;
23304;SDS011;11821;51.456;8.844;2024-01-11T08:22:11;68.38;;;32.45;;
23304;SDS011;11821;51.456;8.844;2024-01-11T08:24:38;68.50;;;31.95;;
23304;SDS011;11821;51.456;8.844;2024-01-11T08:27:04;84.50;;;34.42;;
23304;SDS011;11821;51.456;8.844;2024-01-11T08:29:31;88.72;;;35.90;;
23304;SDS011;11821;51.456;8.844;2024-01-11T08:31:58;74.15;;;32.65;;
23304;SDS011;11821;51.456;8.844;2024-01-11T08:34:26;71.40;;;30.92;;
23304;SDS011;11821;51.456;8.844;2024-01-11T08:36:53;72.45;;;33.75;;
23304;SDS011;11821;51.456;8.844;2024-01-11T08:39:19;65.85;;;32.15;;
23304;SDS011;11821;51.456;8.844;2024-01-11T08:41:47;81.05;;;34.60;;
23304;SDS011;11821;51.456;8.844;2024-01-11T08:44:14;78.72;;;35.65;;
23304;SDS011;11821;51.456;8.844;2024-01-11T08:46:40;84.25;;;33.95;;
23304;SDS011;11821;51.456;8.844;2024-01-11T08:49:07;80.90;;;33.60;;
23304;SDS011;11821;51.456;8.844;2024-01-11T08:51:33;75.95;;;33.58;;
23304;SDS011;11821;51.456;8.844;2024-01-11T08:54:00;62.72;;;31.25;;
23304;SDS011;11821;51.456;8.844;2024-01-11T08:56:27;69.90;;;32.10;;
23304;SDS011;11821;51.456;8.844;2024-01-11T08:58:53;72.65;;;33.53;;
23304;SDS011;11821;51.456;8.844;2024-01-11T09:01:20;76.13;;;31.40;;
23304;SDS011;11821;51.456;8.844;2024-01-11T09:03:47;69.13;;;31.73;;
23304;SDS011;11821;51.456;8.844;2024-01-11T09:06:14;60.33;;;29.42;;
23304;SDS011;11821;51.456;8.844;2024-01-11T09:08:41;62.03;;;30.52;;
23304;SDS011;11821;51.456;8.844;2024-01-11T09:11:07;61.95;;;29.67;;
23304;SDS011;11821;51.456;8.844;2024-01-11T09:13:36;66.75;;;29.52;;
23304;SDS011;11821;51.456;8.844;2024-01-11T09:16:02;58.05;;;27.35;;
23304;SDS011;11821;51.456;8.844;2024-01-11T09:18:29;57.20;;;28.30;;
23304;SDS011;11821;51.456;8.844;2024-01-11T09:20:56;48.28;;;25.38;;
23304;SDS011;11821;51.456;8.844;2024-01-11T09:23:22;61.50;;;27.25;;
23304;SDS011;11821;51.456;8.844;2024-01-11T09:25:49;64.03;;;29.95;;
23304;SDS011;11821;51.456;8.844;2024-01-11T09:28:16;52.17;;;29.63;;
23304;SDS011;11821;51.456;8.844;2024-01-11T09:30:42;55.22;;;28.60;;
23304;SDS011;11821;51.456;8.844;2024-01-11T09:33:09;60.13;;;30.08;;
23304;SDS011;11821;51.456;8.844;2024-01-11T09:35:35;54.47;;;28.80;;
23304;SDS011;11821;51.456;8.844;2024-01-11T09:38:02;55.40;;;28.30;;
23304;SDS011;11821;51.456;8.844;2024-01-11T09:40:29;57.85;;;29.35;;
23304;SDS011;11821;51.456;8.844;2024-01-11T09:42:56;52.15;;;26.40;;
23304;SDS011;11821;51.456;8.844;2024-01-11T09:45:22;55.10;;;29.52;;
23304;SDS011;11821;51.456;8.844;2024-01-11T09:47:50;32.72;;;18.52;;
23304;SDS011;11821;51.456;8.844;2024-01-11T09:50:18;35.65;;;22.40;;
23304;SDS011;11821;51.456;8.844;2024-01-11T09:52:48;46.58;;;25.35;;
23304;SDS011;11821;51.456;8.844;2024-01-11T09:55:15;38.55;;;19.10;;
23304;SDS011;11821;51.456;8.844;2024-01-11T09:57:46;47.78;;;24.23;;
23304;SDS011;11821;51.456;8.844;2024-01-11T10:00:13;55.07;;;24.73;;
23304;SDS011;11821;51.456;8.844;2024-01-11T10:02:42;46.17;;;23.10;;
23304;SDS011;11821;51.456;8.844;2024-01-11T10:05:08;40.08;;;21.83;;
23304;SDS011;11821;51.456;8.844;2024-01-11T10:07:35;35.35;;;20.45;;
23304;SDS011;11821;51.456;8.844;2024-01-11T10:10:02;37.47;;;19.45;;
23304;SDS011;11821;51.456;8.844;2024-01-11T10:12:29;34.17;;;21.50;;
23304;SDS011;11821;51.456;8.844;2024-01-11T10:14:59;48.17;;;29.65;;
23304;SDS011;11821;51.456;8.844;2024-01-11T10:17:30;41.97;;;23.25;;
23304;SDS011;11821;51.456;8.844;2024-01-11T10:19:57;46.90;;;27.70;;
23304;SDS011;11821;51.456;8.844;2024-01-11T10:22:25;39.50;;;23.85;;
23304;SDS011;11821;51.456;8.844;2024-01-11T10:24:53;47.42;;;26.60;;
23304;SDS011;11821;51.456;8.844;2024-01-11T10:27:33;53.38;;;26.20;;
23304;SDS011;11821;51.456;8.844;2024-01-11T10:30:00;36.90;;;22.38;;
23304;SDS011;11821;51.456;8.844;2024-01-11T10:32:30;39.13;;;19.73;;
23304;SDS011;11821;51.456;8.844;2024-01-11T10:35:00;37.60;;;22.38;;
23304;SDS011;11821;51.456;8.844;2024-01-11T10:37:31;42.13;;;20.67;;
23304;SDS011;11821;51.456;8.844;2024-01-11T10:40:02;40.72;;;21.98;;
23304;SDS011;11821;51.456;8.844;2024-01-11T10:42:31;51.72;;;26.80;;
23304;SDS011;11821;51.456;8.844;2024-01-11T10:44:57;48.97;;;25.75;;
23304;SDS011;11821;51.456;8.844;2024-01-11T10:47:25;42.47;;;20.08;;
23304;SDS011;11821;51.456;8.844;2024-01-11T10:52:26;40.63;;;19.27;;
23304;SDS011;11821;51.456;8.844;2024-01-11T10:54:54;36.50;;;18.52;;
23304;SDS011;11821;51.456;8.844;2024-01-11T10:57:22;43.13;;;18.40;;
23304;SDS011;11821;51.456;8.844;2024-01-11T10:59:49;28.02;;;16.48;;
23304;SDS011;11821;51.456;8.844;2024-01-11T11:02:16;33.75;;;17.42;;
23304;SDS011;11821;51.456;8.844;2024-01-11T11:04:44;26.27;;;16.05;;
23304;SDS011;11821;51.456;8.844;2024-01-11T11:07:11;23.75;;;13.25;;
23304;SDS011;11821;51.456;8.844;2024-01-11T11:09:38;24.13;;;14.65;;
23304;SDS011;11821;51.456;8.844;2024-01-11T11:12:09;23.45;;;14.82;;
23304;SDS011;11821;51.456;8.844;2024-01-11T11:14:37;41.95;;;19.25;;
23304;SDS011;11821;51.456;8.844;2024-01-11T11:17:04;29.65;;;17.35;;
23304;SDS011;11821;51.456;8.844;2024-01-11T11:19:31;29.75;;;15.40;;
23304;SDS011;11821;51.456;8.844;2024-01-11T11:21:58;19.02;;;12.52;;
23304;SDS011;11821;51.456;8.844;2024-01-11T11:24:24;30.25;;;16.23;;
23304;SDS011;11821;51.456;8.844;2024-01-11T11:26:51;27.23;;;16.40;;
23304;SDS011;11821;51.456;8.844;2024-01-11T11:29:18;28.42;;;19.63;;
23304;SDS011;11821;51.456;8.844;2024-01-11T11:31:46;30.67;;;18.88;;
23304;SDS011;11821;51.456;8.844;2024-01-11T11:34:39;21.38;;;13.23;;
23304;SDS011;11821;51.456;8.844;2024-01-11T11:37:07;29.90;;;15.38;;
23304;SDS011;11821;51.456;8.844;2024-01-11T11:39:33;22.10;;;13.48;;
23304;SDS011;11821;51.456;8.844;2024-01-11T11:42:00;24.88;;;13.52;;
23304;SDS011;11821;51.456;8.844;2024-01-11T11:44:26;26.20;;;15.38;;
23304;SDS011;11821;51.456;8.844;2024-01-11T11:46:53;22.63;;;13.48;;
23304;SDS011;11821;51.456;8.844;2024-01-11T11:49:20;27.50;;;15.57;;
23304;SDS011;11821;51.456;8.844;2024-01-11T11:51:46;20.98;;;13.95;;
23304;SDS011;11821;51.456;8.844;2024-01-11T11:54:14;25.63;;;13.18;;
23304;SDS011;11821;51.456;8.844;2024-01-11T11:56:41;20.15;;;12.68;;
23304;SDS011;11821;51.456;8.844;2024-01-11T11:59:08;20.58;;;13.38;;
23304;SDS011;11821;51.456;8.844;2024-01-11T12:01:35;21.33;;;12.13;;
23304;SDS011;11821;51.456;8.844;2024-01-11T12:04:01;22.55;;;12.88;;
23304;SDS011;11821;51.456;8.844;2024-01-11T12:06:28;30.23;;;13.57;;
23304;SDS011;11821;51.456;8.844;2024-01-11T12:08:55;19.98;;;12.65;;
23304;SDS011;11821;51.456;8.844;2024-01-11T12:11:22;23.42;;;12.80;;
23304;SDS011;11821;51.456;8.844;2024-01-11T12:13:49;21.98;;;13.68;;
23304;SDS011;11821;51.456;8.844;2024-01-11T12:16:17;19.40;;;12.75;;
23304;SDS011;11821;51.456;8.844;2024-01-11T12:18:44;29.60;;;11.35;;
23304;SDS011;11821;51.456;8.844;2024-01-11T12:21:11;16.38;;;10.23;;
23304;SDS011;11821;51.456;8.844;2024-01-11T12:23:38;15.95;;;9.73;;
23304;SDS011;11821;51.456;8.844;2024-01-11T12:26:08;16.13;;;9.43;;
23304;SDS011;11821;51.456;8.844;2024-01-11T12:28:39;23.50;;;11.50;;
23304;SDS011;11821;51.456;8.844;2024-01-11T12:31:06;19.65;;;8.50;;
23304;SDS011;11821;51.456;8.844;2024-01-11T12:33:33;17.67;;;9.38;;
23304;SDS011;11821;51.456;8.844;2024-01-11T12:36:00;22.23;;;8.57;;
23304;SDS011;11821;51.456;8.844;2024-01-11T12:38:27;23.60;;;12.80;;
23304;SDS011;11821;51.456;8.844;2024-01-11T12:40:54;16.45;;;9.30;;
23304;SDS011;11821;51.456;8.844;2024-01-11T12:43:20;17.17;;;10.15;;
23304;SDS011;11821;51.456;8.844;2024-01-11T12:45:47;16.52;;;10.90;;
23304;SDS011;11821;51.456;8.844;2024-01-11T12:48:13;16.15;;;8.52;;
23304;SDS011;11821;51.456;8.844;2024-01-11T12:50:42;15.38;;;9.43;;
23304;SDS011;11821;51.456;8.844;2024-01-11T12:53:09;16.45;;;7.75;;
23304;SDS011;11821;51.456;8.844;2024-01-11T12:56:04;19.13;;;11.60;;
23304;SDS011;11821;51.456;8.844;2024-01-11T12:58:36;17.98;;;10.20;;
23304;SDS011;11821;51.456;8.844;2024-01-11T13:01:06;18.90;;;9.73;;
23304;SDS011;11821;51.456;8.844;2024-01-11T13:03:37;15.50;;;8.50;;
23304;SDS011;11821;51.456;8.844;2024-01-11T13:06:03;15.23;;;8.93;;
23304;SDS011;11821;51.456;8.844;2024-01-11T13:08:31;18.17;;;10.18;;
23304;SDS011;11821;51.456;8.844;2024-01-11T13:10:57;12.23;;;7.72;;
23304;SDS011;11821;51.456;8.844;2024-01-11T13:13:24;17.75;;;8.55;;
23304;SDS011;11821;51.456;8.844;2024-01-11T13:15:51;10.70;;;7.50;;
23304;SDS011;11821;51.456;8.844;2024-01-11T13:18:17;13.25;;;7.63;;
23304;SDS011;11821;51.456;8.844;2024-01-11T13:20:44;21.70;;;9.90;;
23304;SDS011;11821;51.456;8.844;2024-01-11T13:25:40;17.30;;;8.70;;
23304;SDS011;11821;51.456;8.844;2024-01-11T13:28:07;14.70;;;8.65;;
23304;SDS011;11821;51.456;8.844;2024-01-11T13:30:33;13.38;;;8.32;;
23304;SDS011;11821;51.456;8.844;2024-01-11T13:33:00;15.38;;;8.77;;
23304;SDS011;11821;51.456;8.844;2024-01-11T13:35:27;13.70;;;8.20;;
23304;SDS011;11821;51.456;8.844;2024-01-11T13:37:53;13.43;;;8.05;;
23304;SDS011;11821;51.456;8.844;2024-01-11T13:40:21;14.32;;;7.72;;
23304;SDS011;11821;51.456;8.844;2024-01-11T13:42:47;17.65;;;8.30;;
23304;SDS011;11821;51.456;8.844;2024-01-11T13:45:14;11.68;;;7.30;;
23304;SDS011;11821;51.456;8.844;2024-01-11T13:47:40;13.15;;;7.32;;
23304;SDS011;11821;51.456;8.844;2024-01-11T13:50:07;10.80;;;7.00;;
23304;SDS011;11821;51.456;8.844;2024-01-11T13:52:33;12.15;;;5.32;;
23304;SDS011;11821;51.456;8.844;2024-01-11T13:55:00;13.30;;;7.82;;
23304;SDS011;11821;51.456;8.844;2024-01-11T13:57:26;9.23;;;7.30;;
23304;SDS011;11821;51.456;8.844;2024-01-11T13:59:53;16.77;;;8.88;;
23304;SDS011;11821;51.456;8.844;2024-01-11T14:02:19;17.98;;;9.85;;
23304;SDS011;11821;51.456;8.844;2024-01-11T14:04:46;23.77;;;10.15;;
23304;SDS011;11821;51.456;8.844;2024-01-11T14:07:13;17.92;;;11.07;;
23304;SDS011;11821;51.456;8.844;2024-01-11T14:09:40;19.85;;;10.35;;
23304;SDS011;11821;51.456;8.844;2024-01-11T14:12:06;18.70;;;10.68;;
23304;SDS011;11821;51.456;8.844;2024-01-11T14:14:33;24.00;;;12.85;;
23304;SDS011;11821;51.456;8.844;2024-01-11T14:16:59;25.95;;;12.93;;
23304;SDS011;11821;51.456;8.844;2024-01-11T14:19:26;27.15;;;11.40;;
23304;SDS011;11821;51.456;8.844;2024-01-11T14:21:53;29.58;;;13.57;;
23304;SDS011;11821;51.456;8.844;2024-01-11T14:24:20;23.70;;;10.98;;
23304;SDS011;11821;51.456;8.844;2024-01-11T14:26:46;29.85;;;15.30;;
23304;SDS011;11821;51.456;8.844;2024-01-11T14:29:13;28.95;;;16.13;;
23304;SDS011;11821;51.456;8.844;2024-01-11T14:31:39;34.63;;;16.75;;